sensor_id;sensor_type;location;lat;lon;timestamp;P1;durP1;ratioP1;P2;durP2;ratioP2
79687;SDS011;69155;49.464;2.108;2023-05-10T00:02:12;18.40;;;5.47;;
79687;SDS011;69155;49.464;2.108;2023-05-10T00:04:40;13.75;;;5.53;;
79687;SDS011;69155;49.464;2.108;2023-05-10T00:07:11;9.45;;;3.83;;
79687;SDS011;69155;49.464;2.108;2023-05-10T00:09:44;14.65;;;4.72;;
79687;SDS011;69155;49.464;2.108;2023-05-10T00:12:12;9.95;;;3.17;;
79687;SDS011;69155;49.464;2.108;2023-05-10T00:14:40;11.98;;;3.53;;
79687;SDS011;69155;49.464;2.108;2023-05-10T00:17:12;13.27;;;3.85;;
79687;SDS011;69155;49.464;2.108;2023-05-10T00:19:40;9.13;;;4.03;;
79687;SDS011;69155;49.464;2.108;2023-05-10T00:22:11;17.55;;;3.55;;
79687;SDS011;69155;49.464;2.108;2023-05-10T00:24:39;9.93;;;2.85;;
79687;SDS011;69155;49.464;2.108;2023-05-10T00:27:13;14.52;;;3.53;;
79687;SDS011;69155;49.464;2.108;2023-05-10T00:29:41;13.50;;;3.30;;
79687;SDS011;69155;49.464;2.108;2023-05-10T00:32:12;18.75;;;3.38;;
79687;SDS011;69155;49.464;2.108;2023-05-10T00:34:41;10.82;;;3.20;;
79687;SDS011;69155;49.464;2.108;2023-05-10T00:37:30;13.88;;;3.20;;
79687;SDS011;69155;49.464;2.108;2023-05-10T00:40:01;14.73;;;3.00;;
79687;SDS011;69155;49.464;2.108;2023-05-10T00:42:32;7.72;;;2.70;;
79687;SDS011;69155;49.464;2.108;2023-05-10T00:45:01;8.55;;;2.60;;
79687;SDS011;69155;49.464;2.108;2023-05-10T00:47:47;10.85;;;3.38;;
79687;SDS011;69155;49.464;2.108;2023-05-10T00:50:32;8.25;;;2.72;;
79687;SDS011;69155;49.464;2.108;2023-05-10T00:53:01;17.13;;;2.97;;
79687;SDS011;69155;49.464;2.108;2023-05-10T00:55:30;9.23;;;2.90;;
79687;SDS011;69155;49.464;2.108;2023-05-10T00:58:01;8.80;;;2.72;;
79687;SDS011;69155;49.464;2.108;2023-05-10T01:00:33;5.25;;;2.10;;
79687;SDS011;69155;49.464;2.108;2023-05-10T01:02:59;10.68;;;4.22;;
79687;SDS011;69155;49.464;2.108;2023-05-10T01:05:28;7.35;;;2.30;;
79687;SDS011;69155;49.464;2.108;2023-05-10T01:07:59;10.93;;;2.53;;
79687;SDS011;69155;49.464;2.108;2023-05-10T01:10:30;9.43;;;2.22;;
79687;SDS011;69155;49.464;2.108;2023-05-10T01:13:02;9.98;;;2.63;;
79687;SDS011;69155;49.464;2.108;2023-05-10T01:15:31;12.13;;;2.40;;
79687;SDS011;69155;49.464;2.108;2023-05-10T01:18:02;10.10;;;2.72;;
79687;SDS011;69155;49.464;2.108;2023-05-10T01:20:32;5.78;;;2.40;;
79687;SDS011;69155;49.464;2.108;2023-05-10T01:23:26;7.45;;;2.50;;
79687;SDS011;69155;49.464;2.108;2023-05-10T01:35:03;7.57;;;2.40;;
79687;SDS011;69155;49.464;2.108;2023-05-10T01:37:52;8.80;;;2.72;;
79687;SDS011;69155;49.464;2.108;2023-05-10T01:43:03;5.75;;;2.15;;
79687;SDS011;69155;49.464;2.108;2023-05-10T01:46:00;12.88;;;3.03;;
79687;SDS011;69155;49.464;2.108;2023-05-10T01:48:31;12.60;;;2.90;;
79687;SDS011;69155;49.464;2.108;2023-05-10T01:51:00;9.98;;;2.80;;
79687;SDS011;69155;49.464;2.108;2023-05-10T01:53:31;8.15;;;2.55;;
79687;SDS011;69155;49.464;2.108;2023-05-10T01:56:11;6.60;;;2.45;;
79687;SDS011;69155;49.464;2.108;2023-05-10T01:58:40;10.55;;;2.72;;
79687;SDS011;69155;49.464;2.108;2023-05-10T02:01:21;6.95;;;2.40;;
79687;SDS011;69155;49.464;2.108;2023-05-10T02:03:50;11.35;;;2.80;;
79687;SDS011;69155;49.464;2.108;2023-05-10T02:06:21;9.27;;;3.00;;
79687;SDS011;69155;49.464;2.108;2023-05-10T02:08:50;9.00;;;2.33;;
79687;SDS011;69155;49.464;2.108;2023-05-10T02:11:23;6.40;;;2.85;;
79687;SDS011;69155;49.464;2.108;2023-05-10T02:14:01;7.30;;;2.67;;
79687;SDS011;69155;49.464;2.108;2023-05-10T02:16:32;5.47;;;2.85;;
79687;SDS011;69155;49.464;2.108;2023-05-10T02:19:00;9.57;;;2.60;;
79687;SDS011;69155;49.464;2.108;2023-05-10T02:21:50;6.95;;;2.88;;
79687;SDS011;69155;49.464;2.108;2023-05-10T02:24:21;8.73;;;3.20;;
79687;SDS011;69155;49.464;2.108;2023-05-10T02:26:50;6.90;;;3.00;;
79687;SDS011;69155;49.464;2.108;2023-05-10T02:29:31;12.23;;;3.30;;
79687;SDS011;69155;49.464;2.108;2023-05-10T02:32:00;7.65;;;3.30;;
79687;SDS011;69155;49.464;2.108;2023-05-10T02:34:30;11.88;;;3.38;;
79687;SDS011;69155;49.464;2.108;2023-05-10T02:37:00;14.00;;;4.15;;
79687;SDS011;69155;49.464;2.108;2023-05-10T02:39:30;8.75;;;3.58;;
79687;SDS011;69155;49.464;2.108;2023-05-10T02:42:02;8.45;;;3.08;;
79687;SDS011;69155;49.464;2.108;2023-05-10T02:44:31;12.50;;;4.05;;
79687;SDS011;69155;49.464;2.108;2023-05-10T02:47:00;7.97;;;4.13;;
79687;SDS011;69155;49.464;2.108;2023-05-10T02:49:32;6.53;;;3.53;;
79687;SDS011;69155;49.464;2.108;2023-05-10T02:52:01;11.15;;;4.50;;
79687;SDS011;69155;49.464;2.108;2023-05-10T02:54:31;15.55;;;4.25;;
79687;SDS011;69155;49.464;2.108;2023-05-10T02:57:16;9.00;;;4.50;;
79687;SDS011;69155;49.464;2.108;2023-05-10T02:59:50;9.48;;;4.60;;
79687;SDS011;69155;49.464;2.108;2023-05-10T03:02:21;12.38;;;4.35;;
79687;SDS011;69155;49.464;2.108;2023-05-10T03:04:49;11.40;;;4.45;;
79687;SDS011;69155;49.464;2.108;2023-05-10T03:07:21;8.65;;;4.55;;
79687;SDS011;69155;49.464;2.108;2023-05-10T03:09:52;9.07;;;4.93;;
79687;SDS011;69155;49.464;2.108;2023-05-10T03:26:13;8.55;;;4.53;;
79687;SDS011;69155;49.464;2.108;2023-05-10T03:28:49;9.20;;;4.43;;
79687;SDS011;69155;49.464;2.108;2023-05-10T03:31:21;6.38;;;4.30;;
79687;SDS011;69155;49.464;2.108;2023-05-10T03:36:20;9.65;;;4.47;;
79687;SDS011;69155;49.464;2.108;2023-05-10T03:38:51;9.90;;;4.65;;
79687;SDS011;69155;49.464;2.108;2023-05-10T03:41:23;9.52;;;4.95;;
79687;SDS011;69155;49.464;2.108;2023-05-10T03:43:51;11.07;;;5.30;;
79687;SDS011;69155;49.464;2.108;2023-05-10T03:46:19;13.63;;;5.30;;
79687;SDS011;69155;49.464;2.108;2023-05-10T03:48:51;8.27;;;4.63;;
79687;SDS011;69155;49.464;2.108;2023-05-10T03:51:22;10.30;;;4.20;;
79687;SDS011;69155;49.464;2.108;2023-05-10T03:53:50;8.30;;;5.32;;
79687;SDS011;69155;49.464;2.108;2023-05-10T03:56:21;8.70;;;5.05;;
79687;SDS011;69155;49.464;2.108;2023-05-10T03:58:49;7.95;;;4.75;;
79687;SDS011;69155;49.464;2.108;2023-05-10T04:01:21;8.27;;;5.13;;
79687;SDS011;69155;49.464;2.108;2023-05-10T04:03:52;10.07;;;4.47;;
79687;SDS011;69155;49.464;2.108;2023-05-10T04:06:21;10.98;;;4.32;;
79687;SDS011;69155;49.464;2.108;2023-05-10T04:08:52;11.85;;;4.18;;
79687;SDS011;69155;49.464;2.108;2023-05-10T04:11:20;10.90;;;4.65;;
79687;SDS011;69155;49.464;2.108;2023-05-10T04:13:52;11.70;;;4.32;;
79687;SDS011;69155;49.464;2.108;2023-05-10T04:16:20;7.93;;;3.47;;
79687;SDS011;69155;49.464;2.108;2023-05-10T04:21:43;7.40;;;4.00;;
79687;SDS011;69155;49.464;2.108;2023-05-10T04:24:20;9.25;;;2.85;;
79687;SDS011;69155;49.464;2.108;2023-05-10T04:26:51;3.90;;;2.83;;
79687;SDS011;69155;49.464;2.108;2023-05-10T04:29:33;6.47;;;3.53;;
79687;SDS011;69155;49.464;2.108;2023-05-10T04:32:01;12.38;;;2.97;;
79687;SDS011;69155;49.464;2.108;2023-05-10T04:34:32;15.10;;;3.88;;
79687;SDS011;69155;49.464;2.108;2023-05-10T04:37:01;11.07;;;2.58;;
79687;SDS011;69155;49.464;2.108;2023-05-10T04:39:32;7.70;;;2.53;;
79687;SDS011;69155;49.464;2.108;2023-05-10T04:42:03;7.45;;;2.45;;
79687;SDS011;69155;49.464;2.108;2023-05-10T04:44:30;9.13;;;2.58;;
79687;SDS011;69155;49.464;2.108;2023-05-10T04:50:10;4.97;;;2.00;;
79687;SDS011;69155;49.464;2.108;2023-05-10T04:52:41;5.53;;;2.42;;
79687;SDS011;69155;49.464;2.108;2023-05-10T04:55:10;9.35;;;2.30;;
79687;SDS011;69155;49.464;2.108;2023-05-10T04:57:37;7.38;;;2.40;;
79687;SDS011;69155;49.464;2.108;2023-05-10T05:00:10;9.57;;;2.30;;
79687;SDS011;69155;49.464;2.108;2023-05-10T05:02:42;11.15;;;2.95;;
79687;SDS011;69155;49.464;2.108;2023-05-10T05:05:12;11.15;;;2.78;;
79687;SDS011;69155;49.464;2.108;2023-05-10T05:07:40;8.15;;;2.67;;
79687;SDS011;69155;49.464;2.108;2023-05-10T05:15:52;5.65;;;3.20;;
79687;SDS011;69155;49.464;2.108;2023-05-10T05:18:21;7.55;;;2.58;;
79687;SDS011;69155;49.464;2.108;2023-05-10T05:20:52;3.05;;;2.47;;
79687;SDS011;69155;49.464;2.108;2023-05-10T05:23:20;4.65;;;2.47;;
79687;SDS011;69155;49.464;2.108;2023-05-10T05:25:51;11.20;;;3.28;;
79687;SDS011;69155;49.464;2.108;2023-05-10T05:28:20;6.45;;;2.70;;
79687;SDS011;69155;49.464;2.108;2023-05-10T05:30:51;4.00;;;2.72;;
79687;SDS011;69155;49.464;2.108;2023-05-10T05:33:20;7.32;;;2.70;;
79687;SDS011;69155;49.464;2.108;2023-05-10T05:35:51;5.10;;;2.60;;
79687;SDS011;69155;49.464;2.108;2023-05-10T05:38:24;6.97;;;2.72;;
79687;SDS011;69155;49.464;2.108;2023-05-10T05:43:40;6.13;;;2.50;;
79687;SDS011;69155;49.464;2.108;2023-05-10T05:46:11;6.47;;;2.67;;
79687;SDS011;69155;49.464;2.108;2023-05-10T05:48:42;6.75;;;2.53;;
79687;SDS011;69155;49.464;2.108;2023-05-10T05:51:10;5.80;;;2.40;;
79687;SDS011;69155;49.464;2.108;2023-05-10T05:53:42;6.00;;;2.72;;
79687;SDS011;69155;49.464;2.108;2023-05-10T05:56:10;4.60;;;2.22;;
79687;SDS011;69155;49.464;2.108;2023-05-10T05:58:41;7.18;;;2.33;;
79687;SDS011;69155;49.464;2.108;2023-05-10T06:01:09;9.00;;;2.70;;
79687;SDS011;69155;49.464;2.108;2023-05-10T06:03:41;10.73;;;2.58;;
79687;SDS011;69155;49.464;2.108;2023-05-10T06:06:11;14.35;;;3.22;;
79687;SDS011;69155;49.464;2.108;2023-05-10T06:08:41;6.65;;;3.00;;
79687;SDS011;69155;49.464;2.108;2023-05-10T06:11:12;7.43;;;2.92;;
79687;SDS011;69155;49.464;2.108;2023-05-10T06:13:40;7.18;;;3.03;;
79687;SDS011;69155;49.464;2.108;2023-05-10T06:16:10;34.95;;;5.15;;
79687;SDS011;69155;49.464;2.108;2023-05-10T06:18:41;5.88;;;4.07;;
79687;SDS011;69155;49.464;2.108;2023-05-10T06:21:12;6.30;;;3.20;;
79687;SDS011;69155;49.464;2.108;2023-05-10T06:23:40;4.05;;;3.15;;
79687;SDS011;69155;49.464;2.108;2023-05-10T06:26:08;6.43;;;3.22;;
79687;SDS011;69155;49.464;2.108;2023-05-10T06:31:42;15.38;;;3.40;;
79687;SDS011;69155;49.464;2.108;2023-05-10T06:34:10;12.90;;;4.23;;
79687;SDS011;69155;49.464;2.108;2023-05-10T06:36:39;6.65;;;3.78;;
79687;SDS011;69155;49.464;2.108;2023-05-10T06:39:10;12.35;;;4.75;;
79687;SDS011;69155;49.464;2.108;2023-05-10T06:41:43;8.35;;;4.85;;
79687;SDS011;69155;49.464;2.108;2023-05-10T06:44:11;6.75;;;4.38;;
79687;SDS011;69155;49.464;2.108;2023-05-10T06:46:41;10.40;;;5.72;;
79687;SDS011;69155;49.464;2.108;2023-05-10T06:49:09;19.00;;;6.22;;
79687;SDS011;69155;49.464;2.108;2023-05-10T06:51:40;8.07;;;5.45;;
79687;SDS011;69155;49.464;2.108;2023-05-10T06:54:13;10.25;;;5.20;;
79687;SDS011;69155;49.464;2.108;2023-05-10T06:56:41;8.88;;;5.65;;
79687;SDS011;69155;49.464;2.108;2023-05-10T06:59:11;10.75;;;5.97;;
79687;SDS011;69155;49.464;2.108;2023-05-10T07:01:41;7.78;;;5.63;;
79687;SDS011;69155;49.464;2.108;2023-05-10T07:04:13;9.35;;;6.55;;
79687;SDS011;69155;49.464;2.108;2023-05-10T07:06:41;11.00;;;5.85;;
79687;SDS011;69155;49.464;2.108;2023-05-10T07:09:12;23.42;;;8.50;;
79687;SDS011;69155;49.464;2.108;2023-05-10T07:11:41;13.77;;;7.28;;
79687;SDS011;69155;49.464;2.108;2023-05-10T07:14:12;8.88;;;6.03;;
79687;SDS011;69155;49.464;2.108;2023-05-10T07:16:40;16.42;;;6.63;;
79687;SDS011;69155;49.464;2.108;2023-05-10T07:19:11;13.15;;;6.43;;
79687;SDS011;69155;49.464;2.108;2023-05-10T07:21:51;18.13;;;8.18;;
79687;SDS011;69155;49.464;2.108;2023-05-10T07:24:22;9.52;;;7.22;;
79687;SDS011;69155;49.464;2.108;2023-05-10T07:26:51;13.20;;;7.63;;
79687;SDS011;69155;49.464;2.108;2023-05-10T07:29:22;17.05;;;7.88;;
79687;SDS011;69155;49.464;2.108;2023-05-10T07:31:50;17.15;;;7.57;;
79687;SDS011;69155;49.464;2.108;2023-05-10T07:34:24;15.20;;;7.47;;
79687;SDS011;69155;49.464;2.108;2023-05-10T07:36:59;15.85;;;7.18;;
79687;SDS011;69155;49.464;2.108;2023-05-10T07:39:34;13.90;;;7.28;;
79687;SDS011;69155;49.464;2.108;2023-05-10T07:41:59;11.85;;;7.35;;
79687;SDS011;69155;49.464;2.108;2023-05-10T07:44:27;20.15;;;8.60;;
79687;SDS011;69155;49.464;2.108;2023-05-10T07:46:58;12.60;;;7.70;;
79687;SDS011;69155;49.464;2.108;2023-05-10T07:49:28;13.43;;;7.10;;
79687;SDS011;69155;49.464;2.108;2023-05-10T07:51:53;18.08;;;7.50;;
79687;SDS011;69155;49.464;2.108;2023-05-10T07:54:25;13.32;;;6.55;;
79687;SDS011;69155;49.464;2.108;2023-05-10T07:56:52;15.27;;;7.05;;
79687;SDS011;69155;49.464;2.108;2023-05-10T07:59:20;22.70;;;8.00;;
79687;SDS011;69155;49.464;2.108;2023-05-10T08:01:51;22.23;;;8.00;;
79687;SDS011;69155;49.464;2.108;2023-05-10T08:04:17;55.78;;;9.35;;
79687;SDS011;69155;49.464;2.108;2023-05-10T08:06:52;20.73;;;7.55;;
79687;SDS011;69155;49.464;2.108;2023-05-10T08:09:20;24.00;;;9.30;;
79687;SDS011;69155;49.464;2.108;2023-05-10T08:11:51;19.92;;;8.07;;
79687;SDS011;69155;49.464;2.108;2023-05-10T08:14:33;23.05;;;8.82;;
79687;SDS011;69155;49.464;2.108;2023-05-10T08:17:01;24.27;;;7.97;;
79687;SDS011;69155;49.464;2.108;2023-05-10T08:19:28;25.02;;;7.85;;
79687;SDS011;69155;49.464;2.108;2023-05-10T08:22:03;23.58;;;8.73;;
79687;SDS011;69155;49.464;2.108;2023-05-10T08:24:31;19.23;;;9.27;;
79687;SDS011;69155;49.464;2.108;2023-05-10T08:27:02;24.90;;;9.60;;
79687;SDS011;69155;49.464;2.108;2023-05-10T08:29:31;62.22;;;10.00;;
79687;SDS011;69155;49.464;2.108;2023-05-10T08:32:02;25.58;;;8.13;;
79687;SDS011;69155;49.464;2.108;2023-05-10T08:34:27;25.77;;;8.60;;
79687;SDS011;69155;49.464;2.108;2023-05-10T08:37:00;23.05;;;9.30;;
79687;SDS011;69155;49.464;2.108;2023-05-10T08:39:37;20.38;;;7.55;;
79687;SDS011;69155;49.464;2.108;2023-05-10T08:44:27;15.47;;;6.50;;
79687;SDS011;69155;49.464;2.108;2023-05-10T08:46:58;24.58;;;7.20;;
79687;SDS011;69155;49.464;2.108;2023-05-10T08:52:21;14.25;;;6.15;;
79687;SDS011;69155;49.464;2.108;2023-05-10T08:54:52;10.30;;;5.00;;
79687;SDS011;69155;49.464;2.108;2023-05-10T08:57:20;13.07;;;5.25;;
79687;SDS011;69155;49.464;2.108;2023-05-10T08:59:52;17.10;;;5.20;;
79687;SDS011;69155;49.464;2.108;2023-05-10T09:02:20;15.80;;;5.57;;
79687;SDS011;69155;49.464;2.108;2023-05-10T09:04:52;12.70;;;4.85;;
79687;SDS011;69155;49.464;2.108;2023-05-10T09:07:23;17.77;;;5.45;;
79687;SDS011;69155;49.464;2.108;2023-05-10T09:09:51;13.15;;;5.20;;
79687;SDS011;69155;49.464;2.108;2023-05-10T09:12:30;13.57;;;5.30;;
79687;SDS011;69155;49.464;2.108;2023-05-10T09:20:09;9.00;;;4.07;;
79687;SDS011;69155;49.464;2.108;2023-05-10T09:22:40;7.80;;;3.65;;
79687;SDS011;69155;49.464;2.108;2023-05-10T09:27:41;12.60;;;3.72;;
79687;SDS011;69155;49.464;2.108;2023-05-10T09:30:09;8.98;;;3.58;;
79687;SDS011;69155;49.464;2.108;2023-05-10T09:32:44;15.43;;;4.20;;
79687;SDS011;69155;49.464;2.108;2023-05-10T09:35:22;7.20;;;3.10;;
79687;SDS011;69155;49.464;2.108;2023-05-10T09:37:51;11.35;;;3.55;;
79687;SDS011;69155;49.464;2.108;2023-05-10T09:40:27;12.10;;;4.00;;
79687;SDS011;69155;49.464;2.108;2023-05-10T09:42:58;8.82;;;3.17;;
79687;SDS011;69155;49.464;2.108;2023-05-10T09:45:24;11.60;;;3.25;;
79687;SDS011;69155;49.464;2.108;2023-05-10T09:47:53;8.48;;;3.00;;
79687;SDS011;69155;49.464;2.108;2023-05-10T09:50:32;8.10;;;2.95;;
79687;SDS011;69155;49.464;2.108;2023-05-10T09:55:41;8.65;;;3.47;;
79687;SDS011;69155;49.464;2.108;2023-05-10T09:58:13;12.15;;;3.78;;
79687;SDS011;69155;49.464;2.108;2023-05-10T10:00:59;14.65;;;4.43;;
79687;SDS011;69155;49.464;2.108;2023-05-10T10:06:23;9.32;;;3.60;;
79687;SDS011;69155;49.464;2.108;2023-05-10T10:08:50;11.07;;;3.30;;
79687;SDS011;69155;49.464;2.108;2023-05-10T10:11:18;12.82;;;3.35;;
79687;SDS011;69155;49.464;2.108;2023-05-10T10:13:52;8.88;;;3.53;;
79687;SDS011;69155;49.464;2.108;2023-05-10T10:16:21;14.05;;;3.83;;
79687;SDS011;69155;49.464;2.108;2023-05-10T10:18:54;9.02;;;3.13;;
79687;SDS011;69155;49.464;2.108;2023-05-10T10:21:31;15.63;;;4.32;;
79687;SDS011;69155;49.464;2.108;2023-05-10T10:24:00;9.82;;;3.58;;
79687;SDS011;69155;49.464;2.108;2023-05-10T10:26:38;7.97;;;3.55;;
79687;SDS011;69155;49.464;2.108;2023-05-10T10:29:17;9.35;;;3.35;;
79687;SDS011;69155;49.464;2.108;2023-05-10T10:31:51;12.02;;;4.40;;
79687;SDS011;69155;49.464;2.108;2023-05-10T10:34:22;12.95;;;3.97;;
79687;SDS011;69155;49.464;2.108;2023-05-10T10:36:59;10.75;;;4.20;;
79687;SDS011;69155;49.464;2.108;2023-05-10T10:39:31;12.25;;;5.00;;
79687;SDS011;69155;49.464;2.108;2023-05-10T10:42:12;22.15;;;5.88;;
79687;SDS011;69155;49.464;2.108;2023-05-10T10:44:40;14.95;;;5.43;;
79687;SDS011;69155;49.464;2.108;2023-05-10T10:54:46;25.50;;;6.57;;
79687;SDS011;69155;49.464;2.108;2023-05-10T10:57:20;15.18;;;7.05;;
79687;SDS011;69155;49.464;2.108;2023-05-10T10:59:48;15.57;;;7.05;;
79687;SDS011;69155;49.464;2.108;2023-05-10T11:02:33;20.40;;;7.57;;
79687;SDS011;69155;49.464;2.108;2023-05-10T11:05:01;20.45;;;7.18;;
79687;SDS011;69155;49.464;2.108;2023-05-10T11:10:48;12.90;;;6.63;;
79687;SDS011;69155;49.464;2.108;2023-05-10T11:14:02;16.38;;;6.45;;
79687;SDS011;69155;49.464;2.108;2023-05-10T11:16:12;20.00;;;6.28;;
79687;SDS011;69155;49.464;2.108;2023-05-10T11:18:51;13.02;;;5.78;;
79687;SDS011;69155;49.464;2.108;2023-05-10T11:21:19;15.50;;;5.80;;
79687;SDS011;69155;49.464;2.108;2023-05-10T11:24:00;22.20;;;6.40;;
79687;SDS011;69155;49.464;2.108;2023-05-10T11:26:32;19.83;;;6.63;;
79687;SDS011;69155;49.464;2.108;2023-05-10T11:29:08;19.33;;;6.85;;
79687;SDS011;69155;49.464;2.108;2023-05-10T11:31:42;20.75;;;7.15;;
79687;SDS011;69155;49.464;2.108;2023-05-10T11:34:11;18.80;;;6.00;;
79687;SDS011;69155;49.464;2.108;2023-05-10T11:36:39;16.52;;;6.00;;
79687;SDS011;69155;49.464;2.108;2023-05-10T11:39:12;16.00;;;5.70;;
79687;SDS011;69155;49.464;2.108;2023-05-10T11:41:40;22.17;;;6.97;;
79687;SDS011;69155;49.464;2.108;2023-05-10T11:44:11;31.77;;;6.82;;
79687;SDS011;69155;49.464;2.108;2023-05-10T11:46:39;14.13;;;5.00;;
79687;SDS011;69155;49.464;2.108;2023-05-10T11:51:49;38.63;;;6.30;;
79687;SDS011;69155;49.464;2.108;2023-05-10T11:54:20;34.38;;;5.85;;
79687;SDS011;69155;49.464;2.108;2023-05-10T11:56:51;17.55;;;4.68;;
79687;SDS011;69155;49.464;2.108;2023-05-10T11:59:20;14.70;;;5.60;;
79687;SDS011;69155;49.464;2.108;2023-05-10T12:01:51;17.90;;;5.78;;
79687;SDS011;69155;49.464;2.108;2023-05-10T12:04:20;17.77;;;5.38;;
79687;SDS011;69155;49.464;2.108;2023-05-10T12:06:51;21.77;;;6.30;;
79687;SDS011;69155;49.464;2.108;2023-05-10T12:09:19;11.18;;;5.03;;
79687;SDS011;69155;49.464;2.108;2023-05-10T12:11:50;14.68;;;4.95;;
79687;SDS011;69155;49.464;2.108;2023-05-10T12:14:33;16.50;;;5.65;;
79687;SDS011;69155;49.464;2.108;2023-05-10T12:17:21;22.65;;;5.50;;
79687;SDS011;69155;49.464;2.108;2023-05-10T12:19:49;18.13;;;5.68;;
79687;SDS011;69155;49.464;2.108;2023-05-10T12:22:21;19.52;;;5.43;;
79687;SDS011;69155;49.464;2.108;2023-05-10T12:24:49;13.07;;;5.00;;
79687;SDS011;69155;49.464;2.108;2023-05-10T12:30:31;17.35;;;4.68;;
79687;SDS011;69155;49.464;2.108;2023-05-10T12:33:00;21.90;;;5.55;;
79687;SDS011;69155;49.464;2.108;2023-05-10T12:35:32;14.65;;;5.10;;
79687;SDS011;69155;49.464;2.108;2023-05-10T12:38:01;15.23;;;4.70;;
79687;SDS011;69155;49.464;2.108;2023-05-10T12:40:48;7.53;;;4.13;;
79687;SDS011;69155;49.464;2.108;2023-05-10T12:43:19;18.92;;;4.43;;
79687;SDS011;69155;49.464;2.108;2023-05-10T12:45:50;13.40;;;4.00;;
79687;SDS011;69155;49.464;2.108;2023-05-10T12:48:15;11.15;;;4.32;;
79687;SDS011;69155;49.464;2.108;2023-05-10T12:50:49;15.45;;;4.07;;
79687;SDS011;69155;49.464;2.108;2023-05-10T12:53:20;16.13;;;4.20;;
79687;SDS011;69155;49.464;2.108;2023-05-10T12:55:45;10.52;;;3.20;;
79687;SDS011;69155;49.464;2.108;2023-05-10T12:58:15;37.55;;;4.53;;
79687;SDS011;69155;49.464;2.108;2023-05-10T13:00:50;106.78;;;7.22;;
79687;SDS011;69155;49.464;2.108;2023-05-10T13:03:19;17.17;;;3.97;;
79687;SDS011;69155;49.464;2.108;2023-05-10T13:05:51;9.63;;;2.95;;
79687;SDS011;69155;49.464;2.108;2023-05-10T13:08:23;15.27;;;3.63;;
79687;SDS011;69155;49.464;2.108;2023-05-10T13:10:54;9.98;;;3.08;;
79687;SDS011;69155;49.464;2.108;2023-05-10T13:13:20;17.92;;;3.63;;
79687;SDS011;69155;49.464;2.108;2023-05-10T13:15:51;54.63;;;5.30;;
79687;SDS011;69155;49.464;2.108;2023-05-10T13:18:19;36.88;;;4.15;;
79687;SDS011;69155;49.464;2.108;2023-05-10T13:20:52;7.65;;;3.30;;
79687;SDS011;69155;49.464;2.108;2023-05-10T13:23:21;11.43;;;2.83;;
79687;SDS011;69155;49.464;2.108;2023-05-10T13:25:49;16.38;;;3.65;;
79687;SDS011;69155;49.464;2.108;2023-05-10T13:28:22;13.40;;;3.33;;
79687;SDS011;69155;49.464;2.108;2023-05-10T13:30:47;11.65;;;3.40;;
79687;SDS011;69155;49.464;2.108;2023-05-10T13:33:12;148.43;;;9.50;;
79687;SDS011;69155;49.464;2.108;2023-05-10T13:35:40;41.00;;;4.10;;
79687;SDS011;69155;49.464;2.108;2023-05-10T13:38:11;17.33;;;4.10;;
79687;SDS011;69155;49.464;2.108;2023-05-10T13:40:36;16.48;;;3.38;;
79687;SDS011;69155;49.464;2.108;2023-05-10T13:43:01;11.52;;;3.92;;
79687;SDS011;69155;49.464;2.108;2023-05-10T13:45:29;10.30;;;2.77;;
79687;SDS011;69155;49.464;2.108;2023-05-10T13:48:02;31.52;;;4.63;;
79687;SDS011;69155;49.464;2.108;2023-05-10T13:50:27;25.88;;;3.30;;
79687;SDS011;69155;49.464;2.108;2023-05-10T13:53:00;18.30;;;3.15;;
79687;SDS011;69155;49.464;2.108;2023-05-10T13:55:31;56.28;;;4.47;;
79687;SDS011;69155;49.464;2.108;2023-05-10T13:57:59;28.10;;;4.03;;
79687;SDS011;69155;49.464;2.108;2023-05-10T14:00:31;14.68;;;3.13;;
79687;SDS011;69155;49.464;2.108;2023-05-10T14:03:10;20.92;;;4.35;;
79687;SDS011;69155;49.464;2.108;2023-05-10T14:05:40;22.38;;;3.95;;
79687;SDS011;69155;49.464;2.108;2023-05-10T14:08:11;10.73;;;2.10;;
79687;SDS011;69155;49.464;2.108;2023-05-10T14:10:40;9.65;;;2.20;;
79687;SDS011;69155;49.464;2.108;2023-05-10T14:13:09;14.35;;;4.03;;
79687;SDS011;69155;49.464;2.108;2023-05-10T14:15:40;13.88;;;2.80;;
79687;SDS011;69155;49.464;2.108;2023-05-10T14:18:09;7.75;;;2.50;;
79687;SDS011;69155;49.464;2.108;2023-05-10T14:20:39;31.60;;;3.67;;
79687;SDS011;69155;49.464;2.108;2023-05-10T14:25:41;9.25;;;2.20;;
79687;SDS011;69155;49.464;2.108;2023-05-10T14:30:59;7.38;;;2.00;;
79687;SDS011;69155;49.464;2.108;2023-05-10T14:33:30;7.27;;;1.97;;
79687;SDS011;69155;49.464;2.108;2023-05-10T14:35:58;8.43;;;2.28;;
79687;SDS011;69155;49.464;2.108;2023-05-10T14:38:30;13.13;;;2.42;;
79687;SDS011;69155;49.464;2.108;2023-05-10T14:41:01;15.95;;;2.45;;
79687;SDS011;69155;49.464;2.108;2023-05-10T14:43:30;12.68;;;2.20;;
79687;SDS011;69155;49.464;2.108;2023-05-10T14:46:01;5.10;;;1.85;;
79687;SDS011;69155;49.464;2.108;2023-05-10T14:48:32;13.38;;;3.35;;
79687;SDS011;69155;49.464;2.108;2023-05-10T14:51:01;43.33;;;3.15;;
79687;SDS011;69155;49.464;2.108;2023-05-10T14:53:32;17.27;;;2.50;;
79687;SDS011;69155;49.464;2.108;2023-05-10T14:56:00;13.75;;;2.78;;
79687;SDS011;69155;49.464;2.108;2023-05-10T14:58:40;31.45;;;3.65;;
79687;SDS011;69155;49.464;2.108;2023-05-10T15:01:12;119.00;;;7.80;;
79687;SDS011;69155;49.464;2.108;2023-05-10T15:03:40;31.42;;;3.65;;
79687;SDS011;69155;49.464;2.108;2023-05-10T15:09:00;11.85;;;2.70;;
79687;SDS011;69155;49.464;2.108;2023-05-10T15:11:32;16.40;;;1.92;;
79687;SDS011;69155;49.464;2.108;2023-05-10T15:14:00;26.40;;;2.72;;
79687;SDS011;69155;49.464;2.108;2023-05-10T15:16:29;13.57;;;2.40;;
79687;SDS011;69155;49.464;2.108;2023-05-10T15:19:01;6.90;;;1.67;;
79687;SDS011;69155;49.464;2.108;2023-05-10T15:21:29;10.48;;;2.30;;
79687;SDS011;69155;49.464;2.108;2023-05-10T15:23:59;8.40;;;2.25;;
79687;SDS011;69155;49.464;2.108;2023-05-10T15:26:31;34.47;;;4.43;;
79687;SDS011;69155;49.464;2.108;2023-05-10T15:28:59;57.35;;;5.07;;
79687;SDS011;69155;49.464;2.108;2023-05-10T15:31:30;43.90;;;4.28;;
79687;SDS011;69155;49.464;2.108;2023-05-10T15:34:01;106.93;;;7.38;;
79687;SDS011;69155;49.464;2.108;2023-05-10T15:36:31;31.58;;;3.97;;
79687;SDS011;69155;49.464;2.108;2023-05-10T15:39:02;11.02;;;2.33;;
79687;SDS011;69155;49.464;2.108;2023-05-10T15:41:31;9.98;;;2.03;;
79687;SDS011;69155;49.464;2.108;2023-05-10T15:46:31;71.43;;;6.05;;
79687;SDS011;69155;49.464;2.108;2023-05-10T15:48:59;55.13;;;4.85;;
79687;SDS011;69155;49.464;2.108;2023-05-10T15:51:31;12.43;;;2.70;;
79687;SDS011;69155;49.464;2.108;2023-05-10T15:54:00;33.33;;;3.33;;
79687;SDS011;69155;49.464;2.108;2023-05-10T15:56:29;19.20;;;3.22;;
79687;SDS011;69155;49.464;2.108;2023-05-10T15:59:03;7.13;;;1.88;;
79687;SDS011;69155;49.464;2.108;2023-05-10T16:01:41;10.35;;;2.00;;
79687;SDS011;69155;49.464;2.108;2023-05-10T16:04:10;12.00;;;2.78;;
79687;SDS011;69155;49.464;2.108;2023-05-10T16:06:41;10.55;;;2.13;;
79687;SDS011;69155;49.464;2.108;2023-05-10T16:12:00;10.00;;;2.25;;
79687;SDS011;69155;49.464;2.108;2023-05-10T16:14:29;10.88;;;2.28;;
79687;SDS011;69155;49.464;2.108;2023-05-10T16:17:00;9.30;;;2.22;;
79687;SDS011;69155;49.464;2.108;2023-05-10T16:19:29;11.98;;;2.22;;
79687;SDS011;69155;49.464;2.108;2023-05-10T16:21:54;9.52;;;2.25;;
79687;SDS011;69155;49.464;2.108;2023-05-10T16:24:37;7.57;;;1.83;;
79687;SDS011;69155;49.464;2.108;2023-05-10T16:27:05;27.83;;;4.78;;
79687;SDS011;69155;49.464;2.108;2023-05-10T16:29:37;17.48;;;2.67;;
79687;SDS011;69155;49.464;2.108;2023-05-10T16:32:08;11.68;;;2.00;;
79687;SDS011;69155;49.464;2.108;2023-05-10T16:34:36;7.30;;;1.73;;
79687;SDS011;69155;49.464;2.108;2023-05-10T16:37:07;9.02;;;2.08;;